Time;durP1;ratioP1;P1;durP2;ratioP2;P2;SDS_P1;SDS_P2;PMS_P1;PMS_P2;Temp;Humidity;BMP_temperature;BMP_pressure;BME280_temperature;BME280_humidity;BME280_pressure;Samples;Min_cycle;Max_cycle;Signal;HPM_P1;HPM_P2
2021/09/18 00:01:58;;;;;;;3.60;2.92;;;;;;;16.64;61.57;99885.63;6220890;23;20028;-80
2021/09/18 00:04:25;;;;;;;3.50;3.13;;;;;;;16.58;61.68;99881.63;6220517;23;20016;-79
2021/09/18 00:07:22;;;;;;;3.22;2.58;;;;;;;16.48;62.24;99881.53;6220847;23;20034;-79
2021/09/18 00:09:49;;;;;;;3.97;2.42;;;;;;;16.49;61.87;99885.88;6221010;23;20409;-79
2021/09/18 00:12:26;;;;;;;2.78;2.42;;;;;;;16.42;62.38;99882.03;6220667;23;20023;-80
2021/09/18 00:14:53;;;;;;;6.28;2.40;;;;;;;16.42;61.95;99884.69;6220760;23;20042;-79
2021/09/18 00:17:20;;;;;;;3.88;2.10;;;;;;;16.39;61.97;99882.28;6220903;23;20414;-79
2021/09/18 00:19:50;;;;;;;3.10;2.03;;;;;;;16.33;62.24;99880.94;6220997;23;20096;-79
2021/09/18 00:22:16;;;;;;;3.70;2.25;;;;;;;16.32;62.11;99884.56;6220749;23;20059;-79
2021/09/18 00:24:55;;;;;;;4.38;2.00;;;;;;;16.25;62.69;99881.56;6220303;23;20095;-79
2021/09/18 00:27:22;;;;;;;5.68;2.33;;;;;;;16.26;62.40;99880.59;6220738;23;20034;-79
2021/09/18 00:29:49;;;;;;;2.97;2.28;;;;;;;16.24;62.61;99879.88;6220483;23;20026;-79
2021/09/18 00:32:22;;;;;;;2.47;2.28;;;;;;;16.23;63.27;99877.34;6220420;23;20020;-79
2021/09/18 00:34:49;;;;;;;3.80;2.42;;;;;;;16.25;62.79;99884.22;6220663;23;20384;-79
2021/09/18 00:37:15;;;;;;;4.30;2.65;;;;;;;16.26;62.89;99877.09;6221236;23;20016;-79
2021/09/18 00:39:42;;;;;;;4.13;2.58;;;;;;;16.25;62.79;99878.03;6220107;23;20020;-80
2021/09/18 00:42:09;;;;;;;3.95;2.92;;;;;;;16.25;62.95;99884.22;6220292;23;20055;-79
2021/09/18 00:44:41;;;;;;;4.28;2.97;;;;;;;16.22;63.61;99879.13;6220009;23;20688;-80
2021/09/18 00:47:08;;;;;;;5.18;3.78;;;;;;;16.24;62.98;99882.53;6246898;23;20106;-79
2021/09/18 00:49:34;;;;;;;3.28;2.63;;;;;;;16.25;63.10;99883.34;6220268;23;20028;-79
2021/09/18 00:52:04;;;;;;;3.55;2.75;;;;;;;16.23;63.62;99888.78;6247223;23;20368;-79
2021/09/18 00:54:31;;;;;;;6.50;2.30;;;;;;;16.24;62.94;99887.84;6220425;23;20503;-79
2021/09/18 00:56:59;;;;;;;4.03;2.33;;;;;;;16.25;63.01;99883.34;6219906;23;20020;-80
2021/09/18 00:59:26;;;;;;;2.95;2.30;;;;;;;16.23;62.73;99880.81;6219981;23;20104;-79
2021/09/18 01:02:05;;;;;;;3.88;2.47;;;;;;;16.18;63.33;99884.81;6220608;23;20103;-79
2021/09/18 01:04:32;;;;;;;5.57;2.40;;;;;;;16.19;62.67;99884.72;6220397;23;20016;-79
2021/09/18 01:06:59;;;;;;;4.50;2.40;;;;;;;16.17;62.72;99881.31;6220174;23;20051;-80
2021/09/18 01:09:27;;;;;;;3.15;2.30;;;;;;;16.13;63.00;99890.47;6220393;23;20462;-79
2021/09/18 01:11:57;;;;;;;6.90;2.30;;;;;;;16.11;63.52;99895.09;6220315;23;20093;-80
2021/09/18 01:14:24;;;;;;;2.80;2.42;;;;;;;16.11;63.21;99884.47;6219953;23;20024;-79
2021/09/18 01:16:54;;;;;;;4.65;2.75;;;;;;;16.08;63.69;99890.00;6220250;23;20470;-79
2021/09/18 01:19:21;;;;;;;3.63;2.75;;;;;;;16.08;63.26;99885.56;6220443;23;20059;-79
2021/09/18 01:21:49;;;;;;;7.40;3.13;;;;;;;16.08;63.24;99887.34;6220831;23;20301;-79
2021/09/18 01:24:25;;;;;;;4.47;3.00;;;;;;;16.03;63.86;99882.38;6246672;23;20024;-79
2021/09/18 01:26:52;;;;;;;6.82;3.60;;;;;;;16.05;63.21;99880.47;6220231;23;20381;-79
2021/09/18 01:29:18;;;;;;;6.28;3.70;;;;;;;16.05;63.36;99882.28;6219911;23;20028;-80
2021/09/18 01:31:46;;;;;;;7.30;3.55;;;;;;;16.02;63.27;99889.53;6220344;23;20443;-79
2021/09/18 01:34:48;;;;;;;6.32;3.83;;;;;;;15.98;63.85;99895.19;6220173;23;20386;-79
2021/09/18 01:37:15;;;;;;;7.50;3.42;;;;;;;16.00;63.10;99891.44;6220210;23;20443;-79
2021/09/18 01:39:42;;;;;;;4.20;3.00;;;;;;;15.98;63.10;99890.72;6219846;23;20020;-79
2021/09/18 01:42:09;;;;;;;4.47;3.30;;;;;;;15.96;63.15;99897.13;6219771;23;20059;-79
2021/09/18 01:44:35;;;;;;;5.20;3.47;;;;;;;15.96;63.19;99897.13;6219345;23;20048;-79
2021/09/18 01:47:02;;;;;;;4.72;3.42;;;;;;;15.93;63.34;99895.53;6220077;23;20047;-79
2021/09/18 01:49:56;;;;;;;7.82;3.97;;;;;;;15.89;63.99;99904.69;6220129;23;20348;-79
2021/09/18 01:52:32;;;;;;;11.15;4.20;;;;;;;15.93;63.46;99902.63;6219542;23;20020;-79
2021/09/18 01:55:03;;;;;;;6.07;3.95;;;;;;;15.91;63.12;99905.41;6220580;23;20030;-79
2021/09/18 01:57:30;;;;;;;4.72;3.50;;;;;;;15.89;63.09;99902.84;6246189;23;20082;-79
2021/09/18 02:00:05;;;;;;;5.13;4.03;;;;;;;15.86;63.55;99910.22;6219873;23;20467;-79
2021/09/18 02:02:31;;;;;;;4.75;3.72;;;;;;;15.88;62.97;99906.50;6220077;23;20400;-79
2021/09/18 02:05:20;;;;;;;5.07;3.83;;;;;;;15.83;63.63;99906.00;6220034;23;20047;-79
2021/09/18 02:07:48;;;;;;;5.10;4.03;;;;;;;15.87;62.95;99912.75;6219616;23;20074;-79
2021/09/18 02:10:17;;;;;;;5.90;4.22;;;;;;;15.85;63.29;99909.38;6220137;23;20443;-79
2021/09/18 02:12:52;;;;;;;5.88;4.03;;;;;;;15.82;63.49;99903.47;6222793;23;20027;-79
2021/09/18 02:15:20;;;;;;;6.35;4.20;;;;;;;15.86;62.94;99918.19;6222927;23;20024;-79
2021/09/18 02:17:47;;;;;;;7.43;4.05;;;;;;;15.84;63.00;99904.16;6222913;23;20024;-79
2021/09/18 02:20:17;;;;;;;4.75;3.47;;;;;;;15.82;63.00;99912.28;6222592;23;20063;-79
2021/09/18 02:22:54;;;;;;;7.57;3.80;;;;;;;15.79;63.21;99909.84;6222192;23;20028;-79
2021/09/18 02:25:34;;;;;;;4.63;3.65;;;;;;;15.77;63.20;99904.66;6222840;23;20074;-79
2021/09/18 02:28:02;;;;;;;5.85;4.07;;;;;;;15.79;62.79;99899.25;6222917;23;20054;-79
2021/09/18 02:30:31;;;;;;;5.35;4.15;;;;;;;15.77;63.07;99903.81;6222810;23;20023;-79
2021/09/18 02:33:00;;;;;;;10.77;4.25;;;;;;;15.76;62.95;99899.47;6223361;23;20380;-80
2021/09/18 02:35:28;;;;;;;4.55;4.13;;;;;;;15.74;63.00;99896.91;6222716;23;20078;-79
2021/09/18 02:38:04;;;;;;;7.88;5.10;;;;;;;15.72;63.37;99904.16;6222906;23;20024;-79
2021/09/18 02:40:31;;;;;;;4.70;4.20;;;;;;;15.74;62.95;99902.22;6222731;23;20028;-79
2021/09/18 02:43:09;;;;;;;5.25;4.50;;;;;;;15.69;63.26;99896.44;6249306;23;20059;-80
2021/09/18 02:45:36;;;;;;;5.15;4.57;;;;;;;15.73;62.76;99899.69;6222609;23;20052;-79
2021/09/18 02:48:03;;;;;;;8.32;4.53;;;;;;;15.71;62.79;99897.19;6223142;23;20023;-79
2021/09/18 02:50:30;;;;;;;7.25;4.85;;;;;;;15.70;62.79;99895.47;6222816;23;20024;-79
2021/09/18 02:52:56;;;;;;;6.43;4.55;;;;;;;15.69;62.79;99892.94;6222860;23;20024;-79
2021/09/18 02:55:34;;;;;;;5.90;4.40;;;;;;;15.64;63.30;99895.94;6222522;23;20028;-79
2021/09/18 02:58:01;;;;;;;6.13;3.97;;;;;;;15.67;62.88;99893.06;6222656;23;20032;-79
2021/09/18 03:00:27;;;;;;;5.60;3.85;;;;;;;15.66;62.73;99895.84;6223017;23;20386;-79
2021/09/18 03:03:04;;;;;;;7.30;4.25;;;;;;;15.61;63.35;99899.69;6222811;23;20505;-79
2021/09/18 03:05:31;;;;;;;6.07;3.65;;;;;;;15.64;62.73;99898.59;6222840;23;20355;-79
2021/09/18 03:07:57;;;;;;;4.45;3.58;;;;;;;15.63;62.72;99899.56;6222535;23;20039;-79
2021/09/18 03:10:24;;;;;;;4.57;3.75;;;;;;;15.61;62.59;99891.72;6222752;23;20024;-79
2021/09/18 03:12:51;;;;;;;3.78;3.38;;;;;;;15.59;62.50;99890.97;6222614;23;20028;-79
2021/09/18 03:15:20;;;;;;;4.05;3.35;;;;;;;15.57;62.60;99897.38;6222588;23;20020;-79
2021/09/18 03:17:46;;;;;;;4.35;3.33;;;;;;;15.56;62.64;99899.19;6222574;23;20024;-79
2021/09/18 03:20:14;;;;;;;4.13;3.20;;;;;;;15.55;62.49;99894.00;6223029;23;20393;-79
2021/09/18 03:22:40;;;;;;;4.38;3.30;;;;;;;15.53;62.42;99893.25;6221443;23;20044;-80
2021/09/18 03:25:08;;;;;;;4.30;3.15;;;;;;;15.51;62.52;99898.66;6221352;23;20386;-79
2021/09/18 03:27:35;;;;;;;3.80;2.75;;;;;;;15.50;62.66;99895.19;6220934;23;20031;-79
2021/09/18 03:30:03;;;;;;;4.07;3.30;;;;;;;15.49;62.71;99890.84;6221120;23;20024;-79
2021/09/18 03:32:30;;;;;;;3.22;2.83;;;;;;;15.47;62.68;99886.59;6221155;23;20270;-79
2021/09/18 03:35:51;;;;;;;4.47;3.42;;;;;;;15.43;63.25;99893.09;6221311;23;20020;-79
2021/09/18 03:38:18;;;;;;;6.50;3.47;;;;;;;15.45;62.71;99897.34;6220927;23;20020;-79
2021/09/18 03:40:45;;;;;;;5.97;3.20;;;;;;;15.44;62.91;99895.63;6220931;23;20031;-79
2021/09/18 03:43:12;;;;;;;3.67;3.05;;;;;;;15.43;63.11;99891.31;6220815;23;20031;-80
2021/09/18 03:45:39;;;;;;;4.13;2.03;;;;;;;15.43;62.98;99899.25;6220596;23;20031;-79
2021/09/18 03:48:06;;;;;;;2.05;1.88;;;;;;;15.42;63.13;99896.72;6220954;23;20024;-79
2021/09/18 03:50:33;;;;;;;5.28;2.40;;;;;;;15.42;63.12;99894.06;6220719;23;20103;-79
2021/09/18 03:53:09;;;;;;;2.70;2.00;;;;;;;15.40;63.61;99896.81;6220948;23;20023;-79
2021/09/18 03:55:58;;;;;;;3.38;2.28;;;;;;;15.41;64.03;99893.25;6221098;23;20020;-80
2021/09/18 03:58:25;;;;;;;4.88;2.58;;;;;;;15.47;63.67;99892.75;6220821;23;20020;-80
2021/09/18 04:00:52;;;;;;;3.50;2.33;;;;;;;15.50;63.85;99894.34;6247210;23;20024;-80
2021/09/18 04:03:28;;;;;;;3.28;2.35;;;;;;;15.50;64.55;99895.19;6220939;23;20020;-80
2021/09/18 04:05:55;;;;;;;4.38;2.42;;;;;;;15.57;64.05;99890.25;6220675;23;20024;-80
2021/09/18 04:08:22;;;;;;;6.10;2.55;;;;;;;15.61;64.37;99889.06;6220969;23;20046;-79
2021/09/18 04:10:49;;;;;;;5.45;2.30;;;;;;;15.66;64.40;99882.56;6221082;23;20439;-79
2021/09/18 04:13:16;;;;;;;4.05;2.60;;;;;;;15.69;64.45;99883.16;6220756;23;20028;-79
2021/09/18 04:15:53;;;;;;;3.40;2.65;;;;;;;15.71;64.92;99883.06;6246811;23;20031;-79
2021/09/18 04:18:20;;;;;;;3.58;2.88;;;;;;;15.79;64.21;99887.75;6220664;23;20031;-79
2021/09/18 04:20:47;;;;;;;4.10;3.20;;;;;;;15.81;64.29;99894.63;6247057;23;20040;-80
2021/09/18 04:23:18;;;;;;;5.65;3.00;;;;;;;15.82;64.68;99893.69;6220682;23;20458;-80
2021/09/18 04:25:45;;;;;;;4.05;3.22;;;;;;;15.87;64.14;99888.88;6220288;23;20021;-79
2021/09/18 04:28:18;;;;;;;4.85;3.60;;;;;;;15.87;64.43;99893.31;6220915;23;20466;-79
2021/09/18 04:30:45;;;;;;;5.50;3.85;;;;;;;15.92;63.98;99888.50;6220428;23;20031;-79
2021/09/18 04:33:12;;;;;;;3.70;3.25;;;;;;;15.92;63.80;99891.16;6220512;23;20074;-80
2021/09/18 04:35:39;;;;;;;6.03;3.60;;;;;;;15.91;63.57;99886.81;6220176;23;20016;-80
2021/09/18 04:38:05;;;;;;;3.95;3.03;;;;;;;15.89;63.52;99878.97;6220459;23;20074;-79
2021/09/18 04:40:32;;;;;;;4.57;3.45;;;;;;;15.86;63.58;99892.47;6220596;23;20020;-80
2021/09/18 04:43:02;;;;;;;4.13;3.30;;;;;;;15.82;63.72;99891.03;6220482;23;20378;-79
2021/09/18 04:45:47;;;;;;;5.10;3.20;;;;;;;15.73;63.84;99892.59;6220136;23;20051;-79
2021/09/18 04:48:14;;;;;;;4.70;3.45;;;;;;;15.74;63.30;99899.56;6220714;23;20024;-79
2021/09/18 04:50:43;;;;;;;7.50;3.47;;;;;;;15.71;63.30;99901.63;6220304;23;20028;-79
2021/09/18 04:53:09;;;;;;;4.63;3.92;;;;;;;15.67;63.44;99908.13;6220326;23;20028;-79
2021/09/18 04:55:36;;;;;;;7.85;3.67;;;;;;;15.62;63.47;99903.16;6220360;23;20439;-79
2021/09/18 04:58:03;;;;;;;5.85;3.53;;;;;;;15.59;63.42;99908.72;6220097;23;20024;-80
2021/09/18 05:00:30;;;;;;;5.40;3.60;;;;;;;15.56;63.32;99903.63;6220166;23;20024;-79
2021/09/18 05:02:57;;;;;;;5.82;3.85;;;;;;;15.52;63.51;99897.72;6220144;23;20102;-79
2021/09/18 05:05:27;;;;;;;6.20;4.13;;;;;;;15.47;63.60;99910.47;6220301;23;20039;-80
2021/09/18 05:07:55;;;;;;;4.28;3.80;;;;;;;15.44;63.32;99906.25;6246963;23;20020;-80
2021/09/18 05:10:24;;;;;;;5.03;4.38;;;;;;;15.40;63.49;99910.09;6220283;23;20383;-80
2021/09/18 05:12:52;;;;;;;8.65;4.40;;;;;;;15.37;63.48;99910.34;6219916;23;20336;-80
2021/09/18 05:15:20;;;;;;;6.07;4.35;;;;;;;15.34;63.63;99919.38;6219658;23;20012;-80
2021/09/18 05:18:10;;;;;;;6.07;4.53;;;;;;;15.26;64.03;99916.44;6220114;23;20091;-79
2021/09/18 05:20:44;;;;;;;5.30;3.90;;;;;;;15.28;64.07;99924.28;6219819;23;20111;-80
2021/09/18 05:23:11;;;;;;;6.13;4.03;;;;;;;15.28;63.58;99917.16;6219816;23;20020;-79
2021/09/18 05:25:43;;;;;;;4.95;4.47;;;;;;;15.26;63.67;99915.59;6219760;23;20024;-80
2021/09/18 05:28:19;;;;;;;6.07;3.73;;;;;;;15.20;63.99;99917.75;6247024;23;20020;-80
2021/09/18 05:30:46;;;;;;;5.22;3.67;;;;;;;15.22;63.86;99920.28;6219934;23;20031;-80
2021/09/18 05:33:13;;;;;;;7.32;4.13;;;;;;;15.20;63.78;99925.69;6219980;23;20050;-80
2021/09/18 05:35:52;;;;;;;5.15;4.00;;;;;;;15.15;64.27;99927.84;6219755;23;20016;-80
2021/09/18 05:38:19;;;;;;;4.78;3.35;;;;;;;15.19;63.64;99928.47;6219835;23;20085;-80
2021/09/18 05:40:46;;;;;;;4.90;3.60;;;;;;;15.18;63.70;99930.25;6219826;23;20016;-80
2021/09/18 05:43:13;;;;;;;3.78;3.20;;;;;;;15.18;63.65;99938.22;6219785;23;20331;-80
2021/09/18 05:45:40;;;;;;;6.78;3.15;;;;;;;15.18;63.91;99938.22;6219351;23;20020;-80
2021/09/18 05:48:07;;;;;;;3.45;2.58;;;;;;;15.19;63.81;99933.75;6219869;23;20104;-80
2021/09/18 05:50:40;;;;;;;2.67;2.47;;;;;;;15.16;64.10;99926.88;6246275;23;20028;-80
2021/09/18 05:53:09;;;;;;;3.72;2.80;;;;;;;15.19;63.74;99933.75;6219899;23;20031;-80
2021/09/18 05:55:35;;;;;;;3.05;2.70;;;;;;;15.18;63.63;99940.84;6219614;23;20027;-80
2021/09/18 05:58:21;;;;;;;4.95;2.80;;;;;;;15.13;64.09;99940.34;6219982;23;20372;-80
2021/09/18 06:00:47;;;;;;;3.28;2.22;;;;;;;15.16;63.67;99950.75;6220092;23;20078;-80
2021/09/18 06:03:14;;;;;;;3.60;2.58;;;;;;;15.16;64.01;99945.44;6246074;23;20103;-80
2021/09/18 06:05:42;;;;;;;3.22;2.38;;;;;;;15.17;64.03;99954.25;6219517;23;20024;-80
2021/09/18 06:08:13;;;;;;;3.50;2.22;;;;;;;15.18;64.23;99945.34;6219705;23;20074;-79
2021/09/18 06:10:39;;;;;;;2.47;2.00;;;;;;;15.21;64.31;99948.59;6220221;23;20451;-80
2021/09/18 06:13:06;;;;;;;6.97;1.95;;;;;;;15.23;64.17;99949.34;6219576;23;20023;-80
2021/09/18 06:15:35;;;;;;;2.65;2.13;;;;;;;15.25;64.57;99954.50;6219270;23;20024;-79
2021/09/18 06:18:02;;;;;;;3.95;2.22;;;;;;;15.30;64.32;99959.50;6219774;23;20028;-83
2021/09/18 06:20:29;;;;;;;3.10;2.30;;;;;;;15.33;64.38;99953.97;6219559;23;20059;-83
2021/09/18 06:23:03;;;;;;;3.15;2.03;;;;;;;15.33;64.98;99957.44;6219475;23;20020;-83
2021/09/18 06:25:30;;;;;;;3.67;2.25;;;;;;;15.40;64.68;99957.00;6219221;23;20042;-83
2021/09/18 06:27:56;;;;;;;3.90;2.17;;;;;;;15.43;64.51;99948.78;6219451;23;20020;-83
2021/09/18 06:30:23;;;;;;;2.97;1.98;;;;;;;15.46;64.72;99957.41;6219562;23;20077;-82
2021/09/18 06:32:50;;;;;;;2.35;2.00;;;;;;;15.49;64.71;99965.13;6219519;23;20031;-83
2021/09/18 06:35:17;;;;;;;3.17;2.08;;;;;;;15.53;64.84;99965.75;6219555;23;20020;-82
2021/09/18 06:37:53;;;;;;;2.40;1.83;;;;;;;15.54;65.27;99974.53;6246034;23;20020;-83
2021/09/18 06:40:20;;;;;;;3.40;2.30;;;;;;;15.60;64.90;99974.09;6219333;23;20083;-83
2021/09/18 06:42:48;;;;;;;3.55;1.95;;;;;;;15.63;65.00;99974.69;6219593;23;20031;-83
2021/09/18 06:45:21;;;;;;;5.35;2.40;;;;;;;15.66;65.48;99972.78;6218331;23;20067;-82
2021/09/18 06:47:48;;;;;;;6.43;2.47;;;;;;;15.72;65.09;99974.97;6218995;23;20466;-83
2021/09/18 06:50:15;;;;;;;5.00;1.92;;;;;;;15.75;65.13;99980.06;6218794;23;20086;-83
2021/09/18 06:52:43;;;;;;;3.58;1.70;;;;;;;15.78;65.34;99979.81;6218888;23;20032;-82
2021/09/18 06:55:09;;;;;;;2.17;1.48;;;;;;;15.81;65.19;99982.22;6218674;23;20024;-83
2021/09/18 06:57:38;;;;;;;2.33;1.30;;;;;;;15.85;65.17;99970.41;6219197;23;20484;-82
2021/09/18 07:00:08;;;;;;;2.63;1.38;;;;;;;15.90;65.40;99980.69;6221547;23;20439;-83
2021/09/18 07:02:35;;;;;;;1.48;1.25;;;;;;;15.95;65.24;99973.25;6221282;23;20051;-83
2021/09/18 07:05:04;;;;;;;2.45;1.02;;;;;;;16.00;65.14;99973.75;6221220;23;20020;-83
2021/09/18 07:07:37;;;;;;;3.58;0.90;;;;;;;16.05;65.39;99977.84;6221492;23;20390;-83
2021/09/18 07:10:05;;;;;;;1.83;0.95;;;;;;;16.14;65.11;99974.50;6221772;23;20534;-83
2021/09/18 07:12:32;;;;;;;2.00;0.82;;;;;;;16.20;64.92;99981.16;6220948;23;20030;-83
2021/09/18 07:15:07;;;;;;;1.95;1.23;;;;;;;16.23;64.75;99981.75;6247490;23;20111;-83
2021/09/18 07:17:34;;;;;;;0.75;0.70;;;;;;;16.32;64.59;99979.34;6221569;23;20089;-83
2021/09/18 07:20:03;;;;;;;1.58;0.80;;;;;;;16.37;64.58;99979.84;6221337;23;20259;-83
2021/09/18 07:22:34;;;;;;;2.35;0.95;;;;;;;16.42;64.45;99983.00;6220883;23;20326;-83
2021/09/18 07:25:01;;;;;;;2.13;0.63;;;;;;;16.49;64.33;99992.16;6221123;23;20020;-83
2021/09/18 07:27:28;;;;;;;2.00;0.70;;;;;;;16.54;64.35;99991.81;6221568;23;20444;-83
2021/09/18 07:30:00;;;;;;;2.78;0.80;;;;;;;16.57;64.01;99980.94;6247543;23;20024;-83
2021/09/18 07:32:27;;;;;;;2.05;0.60;;;;;;;16.64;64.19;99984.78;6220981;23;20020;-83
2021/09/18 07:34:54;;;;;;;2.55;0.80;;;;;;;16.70;64.00;99987.94;6220435;23;20066;-83
2021/09/18 07:37:26;;;;;;;0.93;0.68;;;;;;;16.72;63.89;99986.00;6220793;23;20070;-83
2021/09/18 07:39:52;;;;;;;2.88;0.73;;;;;;;16.79;63.64;99997.84;6221185;23;20035;-83
2021/09/18 07:42:19;;;;;;;0.70;0.50;;;;;;;16.85;63.56;99996.50;6220916;23;20102;-83
2021/09/18 07:44:49;;;;;;;1.00;0.70;;;;;;;16.87;63.21;99990.09;6220603;23;20027;-83
2021/09/18 07:47:20;;;;;;;2.53;1.05;;;;;;;16.91;62.89;99998.66;6220751;23;20028;-83
2021/09/18 07:49:47;;;;;;;3.55;0.82;;;;;;;16.98;62.89;99996.38;6221197;23;20024;-83
2021/09/18 07:52:14;;;;;;;2.42;0.47;;;;;;;17.00;62.72;99992.59;6221152;23;20028;-83
2021/09/18 07:54:54;;;;;;;0.93;0.52;;;;;;;17.01;62.88;99994.28;6220960;23;20020;-83
2021/09/18 07:57:47;;;;;;;6.07;0.75;;;;;;;17.08;62.60;99992.00;6225089;23;20026;-83
2021/09/18 08:00:15;;;;;;;1.38;0.40;;;;;;;17.15;62.64;100003.00;6221204;23;20024;-82
2021/09/18 08:02:41;;;;;;;0.85;0.50;;;;;;;17.18;62.68;100000.09;6220845;23;20024;-83
2021/09/18 08:05:10;;;;;;;1.15;0.50;;;;;;;17.22;62.58;100000.69;6220492;23;20024;-83
2021/09/18 08:07:38;;;;;;;3.00;0.65;;;;;;;17.27;62.47;100001.19;6220999;23;20031;-83
2021/09/18 08:10:09;;;;;;;1.45;0.63;;;;;;;17.31;62.62;100005.28;6220702;23;20073;-83
2021/09/18 08:12:37;;;;;;;3.13;0.85;;;;;;;17.36;62.42;100002.22;6220625;23;20024;-82
2021/09/18 08:15:04;;;;;;;3.22;0.90;;;;;;;17.40;62.20;100001.88;6220271;23;20027;-83
2021/09/18 08:17:44;;;;;;;1.88;0.90;;;;;;;17.42;62.18;100001.75;6221028;23;20447;-83
2021/09/18 08:20:12;;;;;;;1.08;0.88;;;;;;;17.50;62.17;100004.63;6220530;23;20024;-83
2021/09/18 08:22:52;;;;;;;2.28;1.13;;;;;;;17.52;62.12;100005.31;6073427;23;20018;-83
2021/09/18 08:25:19;;;;;;;1.05;0.77;;;;;;;17.58;62.04;100009.31;6095115;23;20019;-82
2021/09/18 08:27:46;;;;;;;1.58;1.02;;;;;;;17.62;62.15;100016.06;6071857;23;20030;-83
2021/09/18 08:30:13;;;;;;;1.48;0.77;;;;;;;17.66;61.98;100016.63;6071827;23;20026;-83
2021/09/18 08:32:41;;;;;;;1.02;0.75;;;;;;;17.69;61.53;100011.06;6071652;23;20451;-82
2021/09/18 08:35:08;;;;;;;0.75;0.70;;;;;;;17.72;61.59;100018.81;6071626;23;20397;-83
2021/09/18 08:37:36;;;;;;;0.88;0.80;;;;;;;17.78;61.47;100025.41;6071591;23;20026;-83
2021/09/18 08:40:05;;;;;;;0.73;0.70;;;;;;;17.80;61.29;100029.63;6071771;23;20023;-83
2021/09/18 08:42:40;;;;;;;1.35;0.80;;;;;;;17.82;61.05;100032.19;6071317;23;20026;-83
2021/09/18 08:45:11;;;;;;;2.05;0.95;;;;;;;17.88;61.09;100036.16;6095032;23;20019;-83
2021/09/18 08:47:49;;;;;;;1.70;0.80;;;;;;;17.88;60.77;100037.00;6164844;23;20024;-83
2021/09/18 08:50:20;;;;;;;4.05;1.08;;;;;;;17.95;61.36;100038.16;6220693;23;20329;-83
2021/09/18 08:52:48;;;;;;;2.00;0.90;;;;;;;17.99;61.18;100038.78;6220247;23;20024;-83
2021/09/18 08:55:25;;;;;;;2.47;0.88;;;;;;;17.99;60.54;100038.78;6220438;23;20104;-83
2021/09/18 08:57:52;;;;;;;1.65;0.98;;;;;;;18.06;60.83;100037.25;6220249;23;20126;-83
2021/09/18 09:00:41;;;;;;;2.17;1.10;;;;;;;18.06;60.44;100033.78;6220616;23;20024;-83
2021/09/18 09:03:08;;;;;;;3.38;1.10;;;;;;;18.14;60.41;100039.34;6220468;23;20815;-83
2021/09/18 09:05:45;;;;;;;2.05;0.98;;;;;;;18.16;60.11;100039.22;6220230;23;20447;-82
2021/09/18 09:08:14;;;;;;;1.02;0.70;;;;;;;18.20;60.39;100044.13;6220575;23;20047;-83
2021/09/18 09:10:48;;;;;;;1.33;0.90;;;;;;;18.22;59.92;100034.19;6220368;23;20459;-83
2021/09/18 09:13:22;;;;;;;1.15;1.00;;;;;;;18.26;60.39;100039.25;6219840;23;20051;-83
2021/09/18 09:16:08;;;;;;;2.30;1.08;;;;;;;18.28;60.30;100046.13;6219777;23;20016;-83
2021/09/18 09:18:42;;;;;;;1.38;0.82;;;;;;;18.34;59.39;100042.97;6219907;23;20024;-83
2021/09/18 09:21:27;;;;;;;1.45;0.90;;;;;;;18.35;60.01;100044.63;6219860;23;20452;-82
2021/09/18 09:24:15;;;;;;;1.88;1.33;;;;;;;18.40;60.50;100046.94;6220103;23;20403;-83
2021/09/18 09:27:03;;;;;;;1.95;1.23;;;;;;;18.49;60.70;100040.78;6246240;23;20091;-83
2021/09/18 09:29:45;;;;;;;2.25;1.23;;;;;;;18.53;60.59;100045.84;6219785;23;20098;-83
2021/09/18 09:32:35;;;;;;;2.70;1.27;;;;;;;18.59;60.04;100038.19;6220067;23;20094;-83
2021/09/18 09:35:08;;;;;;;2.28;1.10;;;;;;;18.69;60.26;100042.72;6219944;23;20024;-83
2021/09/18 09:37:36;;;;;;;2.65;1.30;;;;;;;18.77;60.53;100042.91;6219647;23;20056;-83
2021/09/18 09:40:07;;;;;;;2.70;1.48;;;;;;;18.84;60.29;100037.88;6220437;23;20020;-83
2021/09/18 09:42:56;;;;;;;3.55;1.40;;;;;;;18.88;60.60;100045.44;6219680;23;20102;-83
2021/09/18 09:45:23;;;;;;;2.15;1.30;;;;;;;19.01;60.70;100039.03;6219759;23;20024;-83
2021/09/18 09:48:14;;;;;;;2.80;1.30;;;;;;;19.05;60.36;100035.16;6219564;23;20095;-83
2021/09/18 09:50:43;;;;;;;2.08;1.30;;;;;;;19.17;59.99;100043.88;6219712;23;20107;-83
2021/09/18 09:53:33;;;;;;;2.75;1.00;;;;;;;19.21;59.40;100041.81;6219601;23;20099;-83
2021/09/18 09:56:06;;;;;;;2.88;1.30;;;;;;;19.31;59.88;100040.00;6219449;23;20032;-82
2021/09/18 09:59:00;;;;;;;;;;;;;;;19.36;60.43;100036.91;6219956;23;20095;-83
2021/09/18 10:01:28;;;;;;;1.95;1.40;;;;;;;19.52;60.36;100036.38;6219412;23;19915;-83
2021/09/18 10:03:55;;;;;;;3.22;1.30;;;;;;;19.59;60.77;100039.31;6219177;23;20059;-83
2021/09/18 10:06:22;;;;;;;6.65;1.60;;;;;;;19.67;60.81;100036.81;6219856;23;20459;-83
2021/09/18 10:09:03;;;;;;;1.33;1.10;;;;;;;19.74;59.56;100034.41;6246071;23;20103;-83
2021/09/18 10:11:31;;;;;;;2.80;1.10;;;;;;;19.88;59.68;100035.78;6245861;23;20020;-83
2021/09/18 10:14:02;;;;;;;2.40;0.90;;;;;;;19.98;59.63;100036.69;6219882;23;20452;-83
2021/09/18 10:16:31;;;;;;;2.22;1.10;;;;;;;20.11;59.41;100041.72;6219340;23;20013;-83
2021/09/18 10:19:10;;;;;;;1.88;1.02;;;;;;;20.23;58.83;100038.88;6219847;23;20389;-83
2021/09/18 10:24:43;;;;;;;1.55;1.00;;;;;;;20.54;58.35;100039.53;6245525;23;20545;-83
2021/09/18 10:27:25;;;;;;;2.17;0.90;;;;;;;20.64;59.34;100034.13;6219624;23;20020;-83
2021/09/18 10:29:53;;;;;;;1.87;1.27;;;;;;;20.81;59.04;100037.00;6219296;23;20063;-83
2021/09/18 10:32:26;;;;;;;4.10;1.05;;;;;;;20.92;57.40;100039.53;6195034;23;20035;-83
2021/09/18 10:35:14;;;;;;;1.20;0.85;;;;;;;21.06;58.38;100040.88;6221216;23;20063;-83
2021/09/18 10:37:42;;;;;;;1.33;0.80;;;;;;;21.22;57.81;100039.38;6221915;23;20390;-83
2021/09/18 10:40:11;;;;;;;1.00;0.90;;;;;;;21.34;58.22;100031.94;6221607;23;20027;-83
2021/09/18 10:42:44;;;;;;;2.55;0.90;;;;;;;21.46;58.29;100033.41;6221687;23;20398;-84
2021/09/18 10:45:39;;;;;;;0.98;0.88;;;;;;;21.58;57.61;100030.53;6221011;23;20095;-84
2021/09/18 10:48:28;;;;;;;2.03;1.10;;;;;;;21.75;57.51;100023.50;6221664;23;20478;-84
2021/09/18 10:50:55;;;;;;;1.55;0.95;;;;;;;21.90;57.62;100031.00;6221197;23;20027;-84
2021/09/18 10:53:22;;;;;;;2.00;1.10;;;;;;;22.00;57.51;100027.25;6221355;23;20095;-84
2021/09/18 10:55:58;;;;;;;1.17;1.08;;;;;;;22.12;57.15;100026.97;6247239;23;20045;-84
2021/09/18 11:02:35;;;;;;;1.83;1.13;;;;;;;22.58;57.28;100025.97;6246954;23;20549;-81
2021/09/18 11:05:04;;;;;;;1.98;1.00;;;;;;;22.88;57.85;100023.75;6221709;23;20470;-81
2021/09/18 11:08:19;;;;;;;2.38;1.00;;;;;;;23.22;56.75;100020.16;6221679;23;20343;-82
2021/09/18 11:11:15;;;;;;;0.93;0.80;;;;;;;23.85;57.91;100021.59;6248037;23;20027;-82
2021/09/18 11:13:44;;;;;;;1.33;0.90;;;;;;;24.58;58.12;100017.13;6221050;23;20066;-82
2021/09/18 11:17:05;;;;;;;0.60;0.60;;;;;;;25.37;56.06;100020.81;6221482;23;20439;-82
2021/09/18 11:19:32;;;;;;;0.90;0.60;;;;;;;26.40;56.13;100030.44;6221499;23;20381;-82
2021/09/18 11:22:21;;;;;;;0.47;0.40;;;;;;;27.25;51.98;100028.41;6221008;23;20028;-82
2021/09/18 11:24:48;;;;;;;0.85;0.52;;;;;;;28.05;51.24;100020.22;6221548;23;20020;-82
2021/09/18 11:30:44;;;;;;;1.15;0.60;;;;;;;29.69;47.98;100028.91;6247663;23;20099;-82
2021/09/18 11:33:15;;;;;;;1.23;0.80;;;;;;;30.34;46.23;100018.44;6221479;23;20087;-82
2021/09/18 11:35:52;;;;;;;0.77;0.50;;;;;;;30.94;45.09;100014.69;6247769;23;20067;-81
2021/09/18 11:38:29;;;;;;;0.57;0.30;;;;;;;31.52;42.86;100017.53;6220959;23;20046;-81
2021/09/18 11:41:13;;;;;;;1.23;0.70;;;;;;;31.99;42.73;100011.72;6221250;23;20332;-81
2021/09/18 11:43:43;;;;;;;0.73;0.57;;;;;;;32.34;40.19;100013.06;6220666;23;20031;-81
2021/09/18 11:46:10;;;;;;;1.15;0.70;;;;;;;32.44;38.74;100013.38;6247171;23;20020;-80
2021/09/18 11:49:11;;;;;;;1.90;0.80;;;;;;;32.22;39.10;100012.97;6221239;23;20021;-81
2021/09/18 11:51:38;;;;;;;0.43;0.43;;;;;;;32.05;38.43;100010.81;6220746;23;20099;-81
2021/09/18 11:54:07;;;;;;;0.43;0.40;;;;;;;31.77;38.12;100014.81;6220453;23;20111;-80
2021/09/18 11:56:34;;;;;;;1.02;0.75;;;;;;;31.59;38.28;100013.69;6220768;23;20024;-80
2021/09/18 11:59:19;;;;;;;0.63;0.63;;;;;;;31.49;39.82;100010.63;6221349;23;20095;-81
2021/09/18 12:01:47;;;;;;;1.10;0.82;;;;;;;31.68;39.93;100007.97;6220930;23;20020;-80
2021/09/18 12:04:14;;;;;;;0.80;0.80;;;;;;;31.93;39.18;100002.56;6220892;23;20055;-81